Time;durP1;ratioP1;P1;durP2;ratioP2;P2;SDS_P1;SDS_P2;PMS_P1;PMS_P2;Temp;Humidity;BMP_temperature;BMP_pressure;BME280_temperature;BME280_humidity;BME280_pressure;Samples;Min_cycle;Max_cycle;Signal;HPM_P1;HPM_P2
2023/04/17 00:00:36;;;;;;;37.43;26.10;;;;;;;9.74;100.00;99733.84;5094520;28;20200;-79
2023/04/17 00:03:04;;;;;;;40.33;26.83;;;;;;;9.77;100.00;99735.50;5093529;28;20934;-79
2023/04/17 00:05:33;;;;;;;35.40;26.30;;;;;;;9.74;100.00;99733.84;5089763;28;20241;-79
2023/04/17 00:08:02;;;;;;;34.00;25.33;;;;;;;9.62;100.00;99719.47;5094492;28;20204;-79
2023/04/17 00:10:30;;;;;;;37.27;25.67;;;;;;;9.77;100.00;99725.78;5091644;28;20199;-79
2023/04/17 00:13:00;;;;;;;35.47;26.40;;;;;;;9.68;100.00;99728.91;5090362;28;20229;-79
2023/04/17 00:15:28;;;;;;;35.33;25.97;;;;;;;9.60;100.00;99726.63;5091680;28;20279;-79
2023/04/17 00:17:56;;;;;;;38.57;26.37;;;;;;;9.67;100.00;99728.03;5093038;28;20198;-79
2023/04/17 00:20:24;;;;;;;35.93;25.60;;;;;;;9.51;100.00;99729.75;5097057;28;20267;-79
2023/04/17 00:22:53;;;;;;;36.47;26.73;;;;;;;9.52;100.00;99734.09;5097145;28;20199;-79
2023/04/17 00:25:21;;;;;;;35.27;26.70;;;;;;;9.33;100.00;99731.50;5090568;28;20281;-79
2023/04/17 00:27:49;;;;;;;34.57;26.70;;;;;;;9.37;100.00;99729.59;5091278;28;20241;-79
2023/04/17 00:30:19;;;;;;;37.83;27.70;;;;;;;9.34;100.00;99737.66;5096840;28;20200;-79
2023/04/17 00:32:47;;;;;;;43.30;27.60;;;;;;;9.22;100.00;99725.06;5096779;28;20214;-79
2023/04/17 00:35:16;;;;;;;40.20;29.00;;;;;;;9.35;100.00;99734.94;5097098;28;20192;-79
2023/04/17 00:37:44;;;;;;;40.97;28.73;;;;;;;9.48;100.00;99732.56;5093792;28;20198;-79
2023/04/17 00:40:14;;;;;;;39.00;28.77;;;;;;;9.53;100.00;99737.59;5096893;28;20720;-79
2023/04/17 00:42:42;;;;;;;39.53;28.77;;;;;;;9.58;100.00;99732.94;5054239;28;20195;-79
2023/04/17 00:45:10;;;;;;;40.37;28.30;;;;;;;9.58;100.00;99731.16;5089549;28;20219;-79
2023/04/17 00:47:40;;;;;;;39.83;29.53;;;;;;;9.43;100.00;99727.47;5092918;28;20204;-79
2023/04/17 00:50:09;;;;;;;38.83;29.10;;;;;;;9.43;100.00;99731.91;5093991;28;20258;-79
2023/04/17 00:52:38;;;;;;;43.33;29.87;;;;;;;9.43;100.00;99730.13;5098174;28;20234;-79
2023/04/17 00:55:07;;;;;;;41.03;29.60;;;;;;;9.46;100.00;99730.00;5097921;28;20202;-78
2023/04/17 00:57:37;;;;;;;39.70;28.50;;;;;;;9.49;100.00;99726.31;5090589;28;20195;-78
2023/04/17 01:00:08;;;;;;;38.13;28.07;;;;;;;9.59;100.00;99727.56;5097410;28;20247;-78
2023/04/17 01:02:37;;;;;;;38.37;27.50;;;;;;;9.54;100.00;99726.09;5096541;28;20195;-78
2023/04/17 01:05:07;;;;;;;38.60;28.37;;;;;;;9.65;100.00;99726.38;5093259;28;20227;-78
2023/04/17 01:07:36;;;;;;;40.80;29.33;;;;;;;9.64;100.00;99724.69;5093980;28;20251;-78
2023/04/17 01:10:05;;;;;;;38.20;28.40;;;;;;;9.69;100.00;99720.88;5094363;28;20192;-78
2023/04/17 01:12:33;;;;;;;39.20;29.03;;;;;;;9.56;100.00;99726.88;5088604;28;20199;-78
2023/04/17 01:15:01;;;;;;;37.77;27.33;;;;;;;9.71;100.00;99726.94;5087626;28;20195;-78
2023/04/17 01:17:30;;;;;;;37.07;27.77;;;;;;;9.60;100.00;99720.50;5095916;28;20195;-78
2023/04/17 01:19:58;;;;;;;37.97;28.20;;;;;;;9.59;100.00;99722.28;5091421;28;20286;-78
2023/04/17 01:22:28;;;;;;;41.10;29.00;;;;;;;9.48;100.00;99719.34;5092775;28;20225;-78
2023/04/17 01:24:57;;;;;;;37.00;28.40;;;;;;;9.42;100.00;99716.97;5089651;28;20223;-78
2023/04/17 01:27:25;;;;;;;39.70;29.63;;;;;;;9.43;100.00;99722.19;5086508;28;20242;-78
2023/04/17 01:29:54;;;;;;;38.67;28.87;;;;;;;9.41;100.00;99723.22;5092734;28;20199;-78
2023/04/17 01:32:22;;;;;;;39.87;29.70;;;;;;;9.45;100.00;99722.09;5088501;28;20719;-78
2023/04/17 01:34:51;;;;;;;39.67;28.83;;;;;;;9.40;100.00;99726.78;5095175;28;20200;-78
2023/04/17 01:37:19;;;;;;;39.13;28.93;;;;;;;9.45;100.00;99722.09;5095425;28;20724;-78
2023/04/17 01:39:47;;;;;;;37.93;28.50;;;;;;;9.40;100.00;99719.72;5089640;28;20249;-78
2023/04/17 01:42:17;;;;;;;39.63;30.53;;;;;;;9.27;100.00;99723.91;5095407;28;20247;-78
2023/04/17 01:44:45;;;;;;;41.60;29.43;;;;;;;9.15;100.00;99720.06;5095137;28;20274;-78
2023/04/17 01:47:13;;;;;;;42.97;30.80;;;;;;;9.07;100.00;99724.88;5090396;28;20234;-78
2023/04/17 01:49:41;;;;;;;43.30;30.90;;;;;;;9.12;100.00;99722.84;5090608;28;20203;-78
2023/04/17 01:52:09;;;;;;;39.77;30.33;;;;;;;9.26;100.00;99731.88;5091805;28;20188;-79
2023/04/17 01:54:38;;;;;;;41.70;30.37;;;;;;;9.14;100.00;99726.28;5091195;28;20209;-79
2023/04/17 01:57:06;;;;;;;44.07;31.70;;;;;;;9.10;100.00;99727.38;5087410;28;20204;-79
2023/04/17 01:59:36;;;;;;;44.40;31.83;;;;;;;9.17;100.00;99727.94;5091110;28;20196;-79
2023/04/17 02:02:05;;;;;;;44.90;31.83;;;;;;;9.08;100.00;99729.25;5090391;28;20195;-79
2023/04/17 02:04:33;;;;;;;45.97;31.90;;;;;;;8.98;100.00;99727.97;5090054;28;20319;-79
2023/04/17 02:07:01;;;;;;;42.17;31.03;;;;;;;9.03;100.00;99719.81;5041794;28;20211;-79
2023/04/17 02:09:29;;;;;;;44.27;30.93;;;;;;;9.00;100.00;99731.41;5094416;28;20678;-78
2023/04/17 02:11:58;;;;;;;46.23;32.23;;;;;;;8.91;100.00;99728.34;5087303;28;20188;-79
2023/04/17 02:14:26;;;;;;;46.27;32.07;;;;;;;8.89;100.00;99721.34;5093741;28;20241;-79
2023/04/17 02:16:55;;;;;;;43.80;31.87;;;;;;;8.97;100.00;99728.88;5009887;28;20198;-79
2023/04/17 02:19:24;;;;;;;48.87;32.60;;;;;;;8.88;100.00;99726.72;5009009;28;20236;-79
2023/04/17 02:21:52;;;;;;;43.50;31.17;;;;;;;8.79;100.00;99730.63;5010473;28;20225;-79
2023/04/17 02:24:20;;;;;;;44.47;31.57;;;;;;;8.91;100.00;99733.63;5009047;28;20207;-79
2023/04/17 02:26:48;;;;;;;42.70;31.73;;;;;;;8.94;100.00;99729.03;5009935;28;20269;-78
2023/04/17 02:29:16;;;;;;;42.33;30.30;;;;;;;9.06;100.00;99725.78;5011444;28;20198;-79
2023/04/17 02:31:45;;;;;;;44.37;30.87;;;;;;;8.96;100.00;99721.88;5011800;28;20237;-79
2023/04/17 02:34:15;;;;;;;44.80;31.10;;;;;;;9.00;100.00;99733.19;5023767;28;20205;-79
2023/04/17 02:36:43;;;;;;;42.37;30.87;;;;;;;9.00;100.00;99726.09;5092997;28;20200;-78
2023/04/17 02:39:11;;;;;;;41.20;29.47;;;;;;;8.98;100.00;99727.97;5088713;28;20748;-79
2023/04/17 02:41:40;;;;;;;42.00;29.47;;;;;;;9.09;100.00;99724.81;5090021;28;20195;-79
2023/04/17 02:44:08;;;;;;;39.40;28.93;;;;;;;9.16;100.00;99726.19;5088771;28;20249;-79
2023/04/17 02:46:36;;;;;;;40.00;29.43;;;;;;;9.16;100.00;99728.84;5090135;28;20251;-78
2023/04/17 02:49:05;;;;;;;40.90;29.70;;;;;;;9.12;100.00;99722.84;5087423;28;20203;-79
2023/04/17 02:51:35;;;;;;;39.17;28.13;;;;;;;9.03;100.00;99728.59;5091020;28;20198;-79
2023/04/17 02:54:03;;;;;;;39.73;28.87;;;;;;;8.99;100.00;99727.03;5092781;28;20204;-79
2023/04/17 02:56:31;;;;;;;40.33;29.77;;;;;;;8.94;100.00;99718.47;5087350;28;20195;-79
2023/04/17 02:58:59;;;;;;;38.33;28.43;;;;;;;9.08;100.00;99726.59;5088890;28;20500;-79
2023/04/17 03:01:28;;;;;;;40.00;28.23;;;;;;;9.06;100.00;99728.44;5088536;28;20199;-79
2023/04/17 03:03:57;;;;;;;45.43;28.73;;;;;;;9.00;100.00;99719.97;5030234;28;20220;-79
2023/04/17 03:06:26;;;;;;;39.47;28.87;;;;;;;8.82;100.00;99721.72;5030533;28;20725;-79
2023/04/17 03:08:56;;;;;;;40.13;29.43;;;;;;;8.75;100.00;99722.91;5030452;28;20205;-79
2023/04/17 03:11:24;;;;;;;40.03;28.80;;;;;;;8.61;100.00;99726.22;5028434;28;20209;-79
2023/04/17 03:13:53;;;;;;;42.27;30.30;;;;;;;8.65;100.00;99724.28;5023514;28;20782;-79
2023/04/17 03:16:22;;;;;;;42.70;30.10;;;;;;;8.65;100.00;99725.13;5027885;28;20237;-79
2023/04/17 03:18:50;;;;;;;44.90;30.20;;;;;;;8.66;100.00;99734.78;5025836;28;20230;-79
2023/04/17 03:21:18;;;;;;;40.17;29.03;;;;;;;8.69;100.00;99736.44;5038979;28;20203;-79
2023/04/17 03:23:46;;;;;;;41.37;30.33;;;;;;;8.78;100.00;99738.59;5092477;28;20192;-79
2023/04/17 03:26:17;;;;;;;40.67;29.63;;;;;;;8.77;100.00;99736.91;5089417;28;20269;-79
2023/04/17 03:28:45;;;;;;;40.93;29.07;;;;;;;8.82;100.00;99746.34;5083800;28;20212;-79
2023/04/17 03:31:13;;;;;;;44.17;29.20;;;;;;;8.82;100.00;99729.63;5092349;28;20200;-78
2023/04/17 03:33:42;;;;;;;41.70;28.30;;;;;;;8.89;100.00;99737.19;5089537;28;20206;-79
2023/04/17 03:36:10;;;;;;;42.27;29.57;;;;;;;8.86;100.00;99739.97;5089538;28;20196;-78
2023/04/17 03:38:38;;;;;;;36.00;27.83;;;;;;;8.84;100.00;99731.25;5087713;28;20260;-78
2023/04/17 03:41:06;;;;;;;42.27;28.37;;;;;;;9.02;100.00;99732.16;5083502;28;20230;-79
2023/04/17 03:43:36;;;;;;;40.40;28.50;;;;;;;9.03;100.00;99740.94;5091057;28;20203;-79
2023/04/17 03:46:05;;;;;;;40.83;28.10;;;;;;;9.04;100.00;99730.31;5088044;28;20200;-78
2023/04/17 03:48:33;;;;;;;40.13;28.17;;;;;;;9.02;100.00;99734.81;5090603;28;20302;-78
2023/04/17 03:51:03;;;;;;;37.93;26.30;;;;;;;9.07;100.00;99735.47;5095975;28;20198;-78
2023/04/17 03:53:31;;;;;;;34.83;26.73;;;;;;;9.10;100.00;99737.94;5095959;28;20249;-78
2023/04/17 03:55:59;;;;;;;35.70;26.13;;;;;;;9.16;100.00;99734.97;5098166;28;20200;-78
2023/04/17 03:58:28;;;;;;;37.70;26.83;;;;;;;9.09;100.00;99735.38;5096005;28;20430;-78
2023/04/17 04:01:00;;;;;;;37.57;27.13;;;;;;;9.14;100.00;99734.19;5098777;28;20244;-78
2023/04/17 04:03:29;;;;;;;36.30;26.53;;;;;;;9.13;100.00;99734.28;5091768;28;20682;-78
2023/04/17 04:05:57;;;;;;;35.60;25.43;;;;;;;9.19;100.00;99739.28;5095870;28;20215;-78
2023/04/17 04:08:25;;;;;;;34.70;25.57;;;;;;;9.18;100.00;99735.78;5096002;28;20199;-78
2023/04/17 04:10:55;;;;;;;37.20;25.37;;;;;;;9.21;100.00;99741.84;5095307;28;20206;-78
2023/04/17 04:13:23;;;;;;;34.70;26.97;;;;;;;9.16;100.00;99737.63;5091572;28;20199;-78
2023/04/17 04:15:51;;;;;;;37.00;26.90;;;;;;;9.07;100.00;99740.75;5087502;28;20196;-78
2023/04/17 04:18:21;;;;;;;36.37;26.83;;;;;;;9.05;100.00;99739.09;5089941;28;20241;-78
2023/04/17 04:20:49;;;;;;;35.93;26.43;;;;;;;8.86;100.00;99739.09;5095467;28;20200;-78
2023/04/17 04:23:19;;;;;;;36.30;26.50;;;;;;;8.80;100.00;99742.06;5092558;28;20200;-78
2023/04/17 04:25:48;;;;;;;38.03;28.40;;;;;;;8.83;100.00;99747.19;5095454;28;20275;-78
2023/04/17 04:28:17;;;;;;;42.77;28.83;;;;;;;8.85;100.00;99754.09;5091304;28;20241;-78
2023/04/17 04:30:49;;;;;;;39.27;28.13;;;;;;;8.94;100.00;99747.53;5090809;28;20263;-78
2023/04/17 04:33:19;;;;;;;39.13;28.00;;;;;;;9.01;100.00;99756.03;5095235;28;20232;-78
2023/04/17 04:35:50;;;;;;;39.80;27.80;;;;;;;8.98;100.00;99758.81;5091450;28;20195;-78
2023/04/17 04:38:18;;;;;;;38.30;27.53;;;;;;;9.06;100.00;99757.50;5095211;28;20191;-78
2023/04/17 04:40:48;;;;;;;38.20;27.57;;;;;;;9.04;100.00;99755.88;5091103;28;20238;-78
2023/04/17 04:43:19;;;;;;;43.20;28.43;;;;;;;9.05;100.00;99757.56;5088247;28;20188;-78
2023/04/17 04:45:49;;;;;;;38.60;27.43;;;;;;;9.18;100.00;99748.16;5095019;28;20195;-79
2023/04/17 04:48:17;;;;;;;37.83;26.80;;;;;;;9.24;100.00;99752.25;5094747;28;20212;-79
2023/04/17 04:50:46;;;;;;;40.30;28.17;;;;;;;9.30;100.00;99752.81;5095025;28;20215;-78
2023/04/17 04:53:15;;;;;;;38.33;25.50;;;;;;;9.31;100.00;99751.03;5089139;28;20222;-77
2023/04/17 04:55:43;;;;;;;36.27;26.67;;;;;;;9.29;100.00;99755.53;5094967;28;20265;-78
2023/04/17 04:58:12;;;;;;;35.17;26.73;;;;;;;9.34;100.00;99751.72;5087092;28;20196;-78
2023/04/17 05:00:40;;;;;;;38.03;26.40;;;;;;;9.15;100.00;99758.84;5093827;28;20200;-78
2023/04/17 05:03:09;;;;;;;33.27;25.77;;;;;;;9.12;100.00;99756.34;5088870;28;20287;-78
2023/04/17 05:05:37;;;;;;;34.57;25.30;;;;;;;8.95;100.00;99764.22;5089237;28;20192;-78
2023/04/17 05:08:06;;;;;;;38.20;26.70;;;;;;;8.91;100.00;99767.97;5090334;28;20215;-78
2023/04/17 05:10:35;;;;;;;33.90;25.70;;;;;;;9.06;100.00;99768.06;5040448;28;20237;-78
2023/04/17 05:13:03;;;;;;;35.00;26.07;;;;;;;9.10;100.00;99769.66;5085610;28;20231;-77
2023/04/17 05:15:32;;;;;;;37.00;26.30;;;;;;;9.06;100.00;99765.44;5086147;28;20207;-77
2023/04/17 05:18:00;;;;;;;35.10;25.27;;;;;;;8.88;100.00;99779.53;5087719;28;20191;-78
2023/04/17 05:20:28;;;;;;;36.27;26.80;;;;;;;8.90;100.00;99772.41;5085466;28;20207;-77
2023/04/17 05:22:57;;;;;;;38.87;28.17;;;;;;;8.88;100.00;99772.47;5088766;28;20195;-78
2023/04/17 05:25:25;;;;;;;36.60;27.10;;;;;;;8.99;100.00;99786.97;5091460;28;20203;-78
2023/04/17 05:27:56;;;;;;;37.67;26.77;;;;;;;8.92;100.00;99775.81;5090187;28;20215;-78
2023/04/17 05:30:25;;;;;;;38.13;27.60;;;;;;;8.93;100.00;99777.53;5091450;28;20194;-78
2023/04/17 05:32:53;;;;;;;38.03;27.80;;;;;;;8.98;100.00;99778.19;5094115;28;20202;-78
2023/04/17 05:35:22;;;;;;;38.47;28.40;;;;;;;8.93;100.00;99777.53;5088460;28;20308;-77
2023/04/17 05:37:50;;;;;;;40.23;27.90;;;;;;;8.96;100.00;99782.66;5094266;28;20222;-78
2023/04/17 05:40:18;;;;;;;41.53;29.00;;;;;;;9.03;100.00;99785.88;5090960;28;20195;-78
2023/04/17 05:42:46;;;;;;;39.63;28.07;;;;;;;9.01;100.00;99788.59;5088534;28;20207;-78
2023/04/17 05:45:18;;;;;;;41.33;28.90;;;;;;;9.05;100.00;99795.44;5083116;28;20256;-77
2023/04/17 05:47:46;;;;;;;41.37;29.00;;;;;;;9.05;100.00;99794.56;5090035;28;20242;-78
2023/04/17 05:50:14;;;;;;;41.73;29.07;;;;;;;9.03;100.00;99791.16;5088379;28;20282;-78
2023/04/17 05:52:42;;;;;;;46.37;29.53;;;;;;;9.08;100.00;99799.72;5093791;28;20208;-78
2023/04/17 05:55:10;;;;;;;44.77;30.43;;;;;;;9.12;100.00;99802.13;5089480;28;20191;-78
2023/04/17 05:57:38;;;;;;;41.97;29.93;;;;;;;9.08;100.00;99794.44;5087903;28;20703;-78
2023/04/17 06:00:11;;;;;;;40.17;29.27;;;;;;;9.14;100.00;99796.78;5085320;28;20647;-77
2023/04/17 06:02:42;;;;;;;41.33;29.73;;;;;;;9.18;100.00;99793.94;5093654;28;20243;-77
2023/04/17 06:05:11;;;;;;;41.20;28.73;;;;;;;9.21;100.00;99800.84;5088885;28;20311;-78
2023/04/17 06:07:39;;;;;;;44.10;29.10;;;;;;;9.21;100.00;99794.72;5089592;28;20307;-77
2023/04/17 06:10:08;;;;;;;39.20;28.90;;;;;;;9.21;100.00;99806.13;5031176;28;20194;-78
2023/04/17 06:12:37;;;;;;;39.73;28.10;;;;;;;9.22;100.00;99792.00;5019441;28;20206;-77
2023/04/17 06:15:07;;;;;;;40.77;28.60;;;;;;;9.22;100.00;99799.91;5026045;28;20202;-78
2023/04/17 06:17:36;;;;;;;39.23;27.67;;;;;;;9.28;100.00;99810.19;5028725;28;20205;-77
2023/04/17 06:20:09;;;;;;;38.87;28.87;;;;;;;9.23;100.00;99804.25;5024337;28;20664;-78
2023/04/17 06:22:38;;;;;;;40.73;29.07;;;;;;;9.27;100.00;99808.50;5030914;28;20251;-77
2023/04/17 06:25:07;;;;;;;42.40;28.93;;;;;;;9.31;100.00;99811.84;5025781;28;20205;-77
2023/04/17 06:27:35;;;;;;;38.47;28.50;;;;;;;9.34;100.00;99806.38;5041527;28;20196;-77
2023/04/17 06:30:06;;;;;;;36.80;28.40;;;;;;;9.38;100.00;99805.31;5087298;28;20257;-77
2023/04/17 06:32:34;;;;;;;40.10;27.93;;;;;;;9.42;100.00;99807.72;5093126;28;20199;-77
2023/04/17 06:35:03;;;;;;;42.60;28.57;;;;;;;9.38;100.00;99810.63;5083167;28;20650;-78
2023/04/17 06:37:32;;;;;;;37.40;27.07;;;;;;;9.48;100.00;99803.94;5085857;28;20208;-77
2023/04/17 06:40:00;;;;;;;38.57;27.70;;;;;;;9.52;100.00;99799.34;5090242;28;20199;-77
2023/04/17 06:42:28;;;;;;;36.50;27.73;;;;;;;9.44;100.00;99797.06;5087029;28;20195;-77
2023/04/17 06:44:56;;;;;;;39.43;27.73;;;;;;;9.53;100.00;99801.06;5088044;28;20202;-77
2023/04/17 06:47:25;;;;;;;35.60;25.90;;;;;;;9.54;100.00;99798.34;5087916;28;20203;-77
2023/04/17 06:49:56;;;;;;;34.23;24.87;;;;;;;9.73;100.00;99803.56;5087992;28;20219;-78
2023/04/17 06:52:25;;;;;;;33.37;25.43;;;;;;;9.69;100.00;99800.22;5086232;28;20199;-77
2023/04/17 06:54:55;;;;;;;34.53;26.03;;;;;;;9.66;100.00;99805.69;5092968;28;20191;-77
2023/04/17 06:57:23;;;;;;;37.03;26.23;;;;;;;9.75;100.00;99805.22;5087441;28;20196;-77
2023/04/17 06:59:51;;;;;;;37.33;26.03;;;;;;;9.74;100.00;99806.13;5087891;28;20222;-78
2023/04/17 07:02:19;;;;;;;33.73;25.73;;;;;;;9.74;100.00;99805.28;5090211;28;20191;-77
2023/04/17 07:04:48;;;;;;;35.60;25.27;;;;;;;9.78;100.00;99800.72;5036310;28;20216;-77
2023/04/17 07:07:17;;;;;;;35.70;25.77;;;;;;;9.80;100.00;99807.63;5069778;28;20279;-77
2023/04/17 07:09:46;;;;;;;37.87;25.23;;;;;;;9.88;100.00;99805.44;5072688;28;20212;-77
2023/04/17 07:12:16;;;;;;;34.13;25.77;;;;;;;9.82;100.00;99808.41;5063384;28;20200;-78
2023/04/17 07:14:45;;;;;;;32.70;25.10;;;;;;;9.83;100.00;99807.47;5070703;28;20635;-78
2023/04/17 07:17:13;;;;;;;35.87;25.17;;;;;;;9.82;100.00;99812.84;5067270;28;20188;-77
2023/04/17 07:19:41;;;;;;;32.73;24.80;;;;;;;9.86;100.00;99811.75;5072490;28;20200;-77
2023/04/17 07:22:10;;;;;;;34.93;24.87;;;;;;;9.89;100.00;99807.16;5072361;28;20254;-78
2023/04/17 07:24:38;;;;;;;36.90;24.80;;;;;;;9.95;100.00;99812.16;5072214;28;20693;-77
2023/04/17 07:27:06;;;;;;;32.93;24.13;;;;;;;10.07;100.00;99813.31;5075977;28;20192;-78
2023/04/17 07:29:36;;;;;;;31.70;23.50;;;;;;;10.01;100.00;99821.56;5075727;28;20216;-77
2023/04/17 07:32:05;;;;;;;30.73;22.80;;;;;;;10.03;100.00;99817.88;5071712;28;20192;-77
2023/04/17 07:34:34;;;;;;;32.67;23.07;;;;;;;10.10;100.00;99818.44;5071562;28;20230;-77
2023/04/17 07:37:02;;;;;;;29.63;22.63;;;;;;;10.13;100.00;99820.06;5073278;28;20219;-77
2023/04/17 07:39:31;;;;;;;28.93;21.10;;;;;;;10.22;100.00;99815.19;5069922;28;20204;-78
2023/04/17 07:42:01;;;;;;;25.20;20.03;;;;;;;10.25;100.00;99812.41;5075763;28;20196;-78
2023/04/17 07:44:29;;;;;;;29.27;20.83;;;;;;;10.21;100.00;99809.94;5067567;28;20204;-78
2023/04/17 07:46:59;;;;;;;26.33;20.50;;;;;;;10.26;100.00;99813.25;5075754;28;20200;-78
2023/04/17 07:49:27;;;;;;;28.73;21.40;;;;;;;10.24;100.00;99815.97;5075645;28;20735;-78
2023/04/17 07:51:56;;;;;;;27.20;20.43;;;;;;;10.25;100.00;99808.88;5072674;28;20196;-78
2023/04/17 07:54:24;;;;;;;27.13;19.57;;;;;;;10.17;100.00;99809.25;5072595;28;20203;-78
2023/04/17 07:56:56;;;;;;;25.13;19.70;;;;;;;10.28;100.00;99812.22;5075724;28;20196;-77
2023/04/17 07:59:25;;;;;;;26.07;18.67;;;;;;;10.32;100.00;99811.13;5074391;28;20288;-78
2023/04/17 08:01:53;;;;;;;26.20;18.67;;;;;;;10.37;100.00;99817.97;5075420;28;20207;-77
2023/04/17 08:04:23;;;;;;;24.30;18.40;;;;;;;10.60;100.00;99818.47;5087425;28;20219;-77
2023/04/17 08:06:52;;;;;;;23.30;17.43;;;;;;;10.53;100.00;99817.09;5088147;28;20204;-78
2023/04/17 08:09:21;;;;;;;21.50;16.47;;;;;;;10.67;100.00;99818.13;5091425;28;20257;-78
2023/04/17 08:11:49;;;;;;;22.03;16.33;;;;;;;10.78;100.00;99811.31;5013454;28;20194;-77
2023/04/17 08:14:24;;;;;;;22.83;16.37;;;;;;;10.94;100.00;99819.28;5012431;28;20280;-78
2023/04/17 08:16:53;;;;;;;24.77;17.10;;;;;;;10.98;100.00;99825.28;5015651;28;20260;-78
2023/04/17 08:19:21;;;;;;;19.97;16.43;;;;;;;11.06;100.00;99829.22;5013365;28;20211;-78
2023/04/17 08:21:50;;;;;;;21.33;16.20;;;;;;;11.35;100.00;99822.28;5013640;28;20203;-78
2023/04/17 08:24:19;;;;;;;21.90;16.63;;;;;;;11.28;100.00;99828.88;5009369;28;20240;-78
2023/04/17 08:26:47;;;;;;;19.73;15.53;;;;;;;11.27;100.00;99821.00;5009902;28;20198;-78
2023/04/17 08:29:16;;;;;;;18.67;15.03;;;;;;;11.45;100.00;99831.44;5025265;28;20220;-78
2023/04/17 08:31:46;;;;;;;18.63;15.20;;;;;;;11.46;100.00;99824.31;5042939;28;20203;-78
2023/04/17 08:34:14;;;;;;;19.40;15.00;;;;;;;11.43;100.00;99822.72;5094412;28;20191;-78
2023/04/17 08:36:42;;;;;;;18.43;15.10;;;;;;;11.54;100.00;99823.91;5091686;28;20200;-78
2023/04/17 08:39:13;;;;;;;17.90;14.37;;;;;;;11.67;100.00;99823.09;5095502;28;20647;-77
2023/04/17 08:41:49;;;;;;;20.67;14.57;;;;;;;11.82;100.00;99813.44;5096389;28;20703;-77
2023/04/17 08:44:20;;;;;;;19.50;14.37;;;;;;;11.70;100.00;99824.72;5083178;28;20203;-78
2023/04/17 08:46:49;;;;;;;16.23;12.83;;;;;;;11.78;100.00;99819.84;5092939;28;20191;-78
2023/04/17 08:49:20;;;;;;;14.40;11.50;;;;;;;11.83;100.00;99822.25;5083790;28;20249;-78
2023/04/17 08:51:48;;;;;;;14.47;10.93;;;;;;;11.68;100.00;99818.66;5093141;28;20249;-78
2023/04/17 08:54:18;;;;;;;13.20;11.43;;;;;;;11.90;100.00;99819.16;5089385;28;20212;-78
2023/04/17 08:56:46;;;;;;;15.53;11.83;;;;;;;11.83;100.00;99808.97;5094805;28;20244;-78
2023/04/17 08:59:15;;;;;;;14.27;9.83;;;;;;;11.61;100.00;99820.81;5093882;28;20195;-78
2023/04/17 09:02:02;;;;;;;11.80;9.60;;;;;;;11.53;100.00;99817.72;4988760;28;20202;-78
2023/04/17 09:04:36;;;;;;;12.57;10.33;;;;;;;11.50;100.00;99817.06;4989609;28;20254;-78
2023/04/17 09:07:05;;;;;;;12.57;10.13;;;;;;;11.72;100.00;99821.03;4993920;28;20196;-78
2023/04/17 09:09:52;;;;;;;11.90;10.33;;;;;;;11.75;100.00;99814.69;4998266;28;20242;-77
2023/04/17 09:12:22;;;;;;;11.33;9.13;;;;;;;12.06;100.00;99816.41;4997725;28;20228;-78
2023/04/17 09:14:51;;;;;;;10.97;7.97;;;;;;;12.47;100.00;99824.56;4992407;28;20266;-78
2023/04/17 09:17:21;;;;;;;10.03;8.53;;;;;;;12.53;100.00;99828.63;4989603;28;20222;-78
2023/04/17 09:20:06;;;;;;;10.50;9.03;;;;;;;12.36;100.00;99815.56;5037444;28;20199;-78
2023/04/17 09:22:36;;;;;;;10.10;8.83;;;;;;;12.55;100.00;99822.31;5089551;28;20187;-78
2023/04/17 09:25:16;;;;;;;9.50;7.87;;;;;;;12.69;100.00;99820.59;5091386;28;20199;-78
2023/04/17 09:27:44;;;;;;;11.27;8.47;;;;;;;12.51;100.00;99817.25;5084986;28;20253;-78
2023/04/17 09:30:13;;;;;;;10.47;8.80;;;;;;;12.79;100.00;99805.78;5093231;28;20500;-79
2023/04/17 09:32:42;;;;;;;10.90;8.67;;;;;;;13.18;100.00;99821.00;5088933;28;20435;-78
2023/04/17 09:35:13;;;;;;;9.23;8.13;;;;;;;13.06;100.00;99817.31;5094445;28;20214;-79
2023/04/17 09:37:51;;;;;;;9.80;7.70;;;;;;;13.00;100.00;99823.03;5095376;28;20192;-78
2023/04/17 09:40:23;;;;;;;9.17;8.17;;;;;;;13.07;100.00;99821.69;5094574;28;20647;-79
2023/04/17 09:42:59;;;;;;;11.20;7.97;;;;;;;12.97;100.00;99819.72;5086574;28;20191;-78
2023/04/17 09:45:34;;;;;;;9.57;7.37;;;;;;;12.79;100.00;99816.41;5091297;28;20199;-78
2023/04/17 09:48:06;;;;;;;9.47;7.50;;;;;;;12.69;100.00;99820.59;5088891;28;20282;-79
2023/04/17 09:50:36;;;;;;;10.60;7.43;;;;;;;12.81;100.00;99820.66;5088152;28;20250;-78
2023/04/17 09:53:08;;;;;;;9.37;7.23;;;;;;;12.83;100.00;99823.22;5091279;28;20230;-78
2023/04/17 09:55:42;;;;;;;7.63;6.90;;;;;;;13.11;100.00;99828.50;5094011;28;20687;-78
2023/04/17 09:58:11;;;;;;;7.40;6.60;;;;;;;13.11;100.00;99830.31;5091123;28;20237;-78
2023/04/17 10:00:42;;;;;;;7.80;6.40;;;;;;;13.24;100.00;99825.97;5090595;28;20187;-79
2023/04/17 10:03:16;;;;;;;7.67;6.33;;;;;;;13.34;100.00;99829.75;5088507;28;20200;-78
2023/04/17 10:05:45;;;;;;;7.20;5.30;;;;;;;13.29;100.00;99833.66;5091441;28;20203;-79
2023/04/17 10:08:15;;;;;;;6.37;5.50;;;;;;;13.04;100.00;99832.53;5087942;28;20257;-79
2023/04/17 10:10:45;;;;;;;6.17;5.37;;;;;;;13.09;100.00;99837.53;5095726;28;20223;-78
2023/04/17 10:13:13;;;;;;;7.33;6.07;;;;;;;13.01;100.00;99827.38;5090512;28;20184;-79
2023/04/17 10:15:42;;;;;;;7.93;6.43;;;;;;;13.02;100.00;99828.25;5095742;28;20276;-78
2023/04/17 10:18:21;;;;;;;6.97;6.20;;;;;;;13.07;100.00;99834.13;5090025;28;20203;-78
2023/04/17 10:20:52;;;;;;;6.90;6.20;;;;;;;12.98;100.00;99832.06;5084396;28;20203;-79
2023/04/17 10:23:30;;;;;;;7.90;6.20;;;;;;;12.69;100.00;99833.88;5091452;28;20249;-78
2023/04/17 10:26:41;;;;;;;7.93;6.80;;;;;;;12.58;100.00;99831.88;5094077;28;20203;-79
2023/04/17 10:29:11;;;;;;;8.83;6.30;;;;;;;12.28;100.00;99831.94;5089186;28;20200;-79
2023/04/17 10:32:18;;;;;;;8.77;6.20;;;;;;;12.33;100.00;99832.50;5088776;28;20219;-78
2023/04/17 10:34:47;;;;;;;8.03;6.23;;;;;;;12.54;100.00;99825.03;5014008;28;20205;-78
2023/04/17 10:37:18;;;;;;;6.70;6.07;;;;;;;12.32;100.00;99826.34;5005433;28;20220;-78
2023/04/17 10:39:51;;;;;;;6.87;5.90;;;;;;;12.25;100.00;99818.81;5053137;28;20195;-78
2023/04/17 10:42:20;;;;;;;8.07;6.70;;;;;;;12.09;100.00;99826.03;5088237;28;20187;-78
2023/04/17 10:44:55;;;;;;;7.03;6.23;;;;;;;12.44;100.00;99826.53;5096162;28;20203;-78
2023/04/17 10:47:31;;;;;;;7.47;6.20;;;;;;;12.24;100.00;99823.28;5086579;28;20195;-78
2023/04/17 10:50:04;;;;;;;8.67;6.20;;;;;;;12.27;100.00;99824.94;5089452;28;20199;-78
2023/04/17 10:52:40;;;;;;;10.23;6.70;;;;;;;12.21;100.00;99815.50;5090775;28;20273;-78
2023/04/17 10:55:12;;;;;;;27.47;18.70;;;;;;;12.24;100.00;99815.31;5088695;28;20215;-78
2023/04/17 10:57:54;;;;;;;9.13;7.17;;;;;;;12.52;100.00;99819.81;5091660;28;20199;-79
2023/04/17 11:00:32;;;;;;;8.57;6.77;;;;;;;12.59;100.00;99809.66;5108458;28;20199;-79
2023/04/17 11:03:01;;;;;;;9.47;6.40;;;;;;;12.95;100.00;99819.81;5104835;28;20717;-79
2023/04/17 11:05:31;;;;;;;7.37;6.40;;;;;;;13.02;100.00;99815.78;5104881;28;20301;-79
2023/04/17 11:07:59;;;;;;;6.97;6.20;;;;;;;12.91;100.00;99812.97;5099921;28;20207;-79
2023/04/17 11:10:28;;;;;;;7.17;6.20;;;;;;;12.95;100.00;99806.53;5091024;28;20207;-79
2023/04/17 11:12:56;;;;;;;7.00;6.30;;;;;;;12.90;100.00;99813.91;5090895;28;20207;-79
2023/04/17 11:15:30;;;;;;;8.00;6.90;;;;;;;12.96;100.00;99807.38;5097311;28;20658;-79
2023/04/17 11:18:01;;;;;;;7.47;5.73;;;;;;;12.93;100.00;99808.41;5091718;28;20214;-79
2023/04/17 11:20:30;;;;;;;6.83;5.87;;;;;;;12.88;100.00;99806.03;5094199;28;20196;-79
2023/04/17 11:23:01;;;;;;;6.07;5.40;;;;;;;12.92;100.00;99805.84;5093171;28;20195;-78
2023/04/17 11:25:32;;;;;;;7.30;5.63;;;;;;;12.92;100.00;99816.47;5092241;28;20200;-79
2023/04/17 11:28:03;;;;;;;7.30;6.00;;;;;;;12.93;100.00;99800.41;5095992;28;20187;-79